Time;durP1;ratioP1;P1;durP2;ratioP2;P2;SDS_P1;SDS_P2;PMS_P1;PMS_P2;Temp;Humidity;BMP_temperature;BMP_pressure;BME280_temperature;BME280_humidity;BME280_pressure;Samples;Min_cycle;Max_cycle;Signal;HPM_P1;HPM_P2
2022/06/20 00:00:09;;;;;;;0.20;0.20;;;;;;;;;;5013528;28;20424;-63
2022/06/20 00:02:37;;;;;;;0.35;0.30;;;;;;;;;;5009996;28;20411;-63
2022/06/20 00:05:04;;;;;;;0.30;0.30;;;;;;;;;;5013679;28;20037;-63
2022/06/20 00:07:30;;;;;;;0.65;0.60;;;;;;;;;;5013779;28;20060;-62
2022/06/20 00:09:56;;;;;;;1.75;0.38;;;;;;;;;;5012116;28;20042;-63
2022/06/20 00:12:24;;;;;;;0.20;0.20;;;;;;;;;;5013292;28;20048;-63
2022/06/20 00:14:55;;;;;;;1.00;0.50;;;;;;;;;;4995615;28;20117;-63
2022/06/20 00:17:21;;;;;;;1.70;0.35;;;;;;;;;;5014051;28;20137;-63
2022/06/20 00:19:47;;;;;;;0.43;0.43;;;;;;;;;;4996011;28;20050;-63
2022/06/20 00:22:13;;;;;;;0.63;0.20;;;;;;;;;;5013027;28;20111;-62
2022/06/20 00:24:39;;;;;;;2.00;0.70;;;;;;;;;;5012356;28;20046;-63
2022/06/20 00:27:10;;;;;;;1.30;0.60;;;;;;;;;;4998862;28;20495;-63
2022/06/20 00:29:40;;;;;;;0.52;0.38;;;;;;;;;;4993249;28;20043;-63
2022/06/20 00:32:07;;;;;;;0.30;0.30;;;;;;;;;;4976936;28;20051;-62
2022/06/20 00:34:33;;;;;;;0.40;0.40;;;;;;;;;;4976614;28;20063;-62
2022/06/20 00:37:00;;;;;;;2.25;0.30;;;;;;;;;;4993439;28;20042;-63
2022/06/20 00:39:26;;;;;;;0.28;0.28;;;;;;;;;;4996432;28;20056;-63
2022/06/20 00:41:52;;;;;;;0.77;0.40;;;;;;;;;;5012949;28;20089;-62
2022/06/20 00:44:30;;;;;;;0.80;0.50;;;;;;;;;;5011623;28;20038;-63
2022/06/20 00:47:00;;;;;;;1.55;0.60;;;;;;;;;;5004826;28;20108;-63
2022/06/20 00:49:30;;;;;;;0.30;0.30;;;;;;;;;;4992289;28;20105;-62
2022/06/20 00:52:02;;;;;;;0.93;0.47;;;;;;;;;;4975960;28;20046;-62
2022/06/20 00:54:40;;;;;;;0.38;0.35;;;;;;;;;;4975417;28;20058;-62
2022/06/20 00:57:10;;;;;;;2.75;0.50;;;;;;;;;;4975965;28;20053;-63
2022/06/20 00:59:41;;;;;;;0.30;0.30;;;;;;;;;;4992691;28;20034;-63
2022/06/20 01:02:08;;;;;;;0.73;0.43;;;;;;;;;;4975964;28;20050;-63
2022/06/20 01:04:39;;;;;;;0.40;0.40;;;;;;;;;;5005307;28;20072;-63
2022/06/20 01:07:08;;;;;;;0.22;0.22;;;;;;;;;;4991419;28;20126;-63
2022/06/20 01:09:37;;;;;;;0.40;0.40;;;;;;;;;;4991455;28;20129;-63
2022/06/20 01:12:03;;;;;;;1.65;0.30;;;;;;;;;;4992775;28;20157;-62
2022/06/20 01:14:35;;;;;;;0.80;0.40;;;;;;;;;;4991807;28;20495;-63
2022/06/20 01:17:02;;;;;;;1.15;0.22;;;;;;;;;;4989098;28;20378;-63
2022/06/20 01:19:39;;;;;;;0.45;0.45;;;;;;;;;;5012528;28;20034;-62
2022/06/20 01:22:12;;;;;;;0.32;0.30;;;;;;;;;;4978721;28;20439;-63
2022/06/20 01:25:04;;;;;;;0.40;0.40;;;;;;;;;;4992066;28;20038;-63
2022/06/20 01:27:39;;;;;;;0.30;0.30;;;;;;;;;;4978207;28;20050;-62
2022/06/20 01:30:05;;;;;;;0.85;0.30;;;;;;;;;;5009485;28;20045;-63
2022/06/20 01:32:31;;;;;;;0.90;0.50;;;;;;;;;;4992925;28;20050;-62
2022/06/20 01:35:02;;;;;;;0.55;0.40;;;;;;;;;;4992233;28;20093;-62
2022/06/20 01:37:30;;;;;;;1.10;0.50;;;;;;;;;;4975699;28;20139;-63
2022/06/20 01:40:05;;;;;;;1.50;0.45;;;;;;;;;;4990747;28;20054;-63
2022/06/20 01:42:31;;;;;;;0.43;0.40;;;;;;;;;;5011857;28;20506;-63
2022/06/20 01:45:03;;;;;;;0.75;0.30;;;;;;;;;;4993799;28;20387;-63
2022/06/20 01:47:30;;;;;;;0.98;0.40;;;;;;;;;;5011591;28;20161;-62
2022/06/20 01:50:00;;;;;;;0.63;0.40;;;;;;;;;;4992581;28;20038;-63
2022/06/20 01:52:39;;;;;;;0.30;0.30;;;;;;;;;;5006770;28;20046;-63
2022/06/20 01:55:08;;;;;;;0.47;0.40;;;;;;;;;;4990663;28;20483;-63
2022/06/20 01:57:36;;;;;;;0.40;0.20;;;;;;;;;;4991761;28;20070;-63
2022/06/20 02:00:05;;;;;;;1.85;0.50;;;;;;;;;;4991025;28;20495;-63
2022/06/20 02:02:34;;;;;;;0.30;0.30;;;;;;;;;;4974871;28;20519;-63
2022/06/20 02:05:02;;;;;;;0.50;0.50;;;;;;;;;;4991771;28;20122;-63
2022/06/20 02:07:28;;;;;;;0.57;0.50;;;;;;;;;;4992234;28;20046;-63
2022/06/20 02:09:55;;;;;;;0.55;0.43;;;;;;;;;;4973138;28;20038;-63
2022/06/20 02:12:21;;;;;;;0.98;0.43;;;;;;;;;;4991649;28;20069;-63
2022/06/20 02:14:50;;;;;;;0.30;0.30;;;;;;;;;;4991346;28;20053;-64
2022/06/20 02:17:22;;;;;;;0.30;0.30;;;;;;;;;;4991975;28;20057;-63
2022/06/20 02:19:52;;;;;;;0.50;0.40;;;;;;;;;;4991651;28;20435;-63
2022/06/20 02:22:20;;;;;;;1.17;0.40;;;;;;;;;;4977053;28;20062;-63
2022/06/20 02:24:48;;;;;;;0.45;0.40;;;;;;;;;;5010418;28;20046;-63
2022/06/20 02:27:20;;;;;;;1.00;0.32;;;;;;;;;;4995023;28;20567;-63
2022/06/20 02:29:46;;;;;;;0.32;0.30;;;;;;;;;;4991074;28;20088;-63
2022/06/20 02:32:17;;;;;;;0.30;0.30;;;;;;;;;;4991139;28;20563;-62
2022/06/20 02:34:44;;;;;;;0.95;0.60;;;;;;;;;;4991311;28;20050;-62
2022/06/20 02:37:11;;;;;;;0.60;0.40;;;;;;;;;;4998968;28;20041;-63
2022/06/20 02:39:39;;;;;;;0.75;0.50;;;;;;;;;;5010092;28;20089;-63
2022/06/20 02:42:08;;;;;;;0.82;0.40;;;;;;;;;;5010826;28;20049;-63
2022/06/20 02:44:35;;;;;;;0.55;0.40;;;;;;;;;;5010116;28;20042;-63
2022/06/20 02:47:05;;;;;;;0.30;0.30;;;;;;;;;;5002756;28;20104;-63
2022/06/20 02:49:31;;;;;;;0.98;0.40;;;;;;;;;;4991427;28;20183;-63
2022/06/20 02:51:58;;;;;;;0.30;0.30;;;;;;;;;;4991123;28;20050;-62
2022/06/20 02:54:27;;;;;;;0.52;0.30;;;;;;;;;;4990269;28;20104;-62
2022/06/20 02:56:58;;;;;;;0.30;0.30;;;;;;;;;;5006179;28;20046;-63
2022/06/20 02:59:30;;;;;;;1.20;0.60;;;;;;;;;;4992574;28;20191;-63
2022/06/20 03:02:02;;;;;;;0.20;0.20;;;;;;;;;;5010693;28;20096;-63
2022/06/20 03:04:30;;;;;;;1.75;0.35;;;;;;;;;;5010869;28;20042;-63
2022/06/20 03:07:00;;;;;;;0.52;0.40;;;;;;;;;;5010671;28;20061;-63
2022/06/20 03:09:30;;;;;;;1.55;0.40;;;;;;;;;;5009776;28;20133;-63
2022/06/20 03:11:57;;;;;;;0.30;0.30;;;;;;;;;;4996612;28;20041;-63
2022/06/20 03:14:27;;;;;;;0.60;0.40;;;;;;;;;;5003628;28;20050;-63
2022/06/20 03:16:54;;;;;;;0.40;0.40;;;;;;;;;;4995149;28;20042;-63
2022/06/20 03:19:23;;;;;;;0.98;0.70;;;;;;;;;;5013480;28;20048;-63
2022/06/20 03:21:50;;;;;;;0.80;0.35;;;;;;;;;;5014898;28;20467;-63
2022/06/20 03:24:18;;;;;;;0.65;0.43;;;;;;;;;;5012986;28;20554;-63
2022/06/20 03:26:45;;;;;;;0.40;0.30;;;;;;;;;;5014826;28;20042;-63
2022/06/20 03:29:16;;;;;;;0.45;0.30;;;;;;;;;;5013143;28;20045;-63
2022/06/20 03:31:42;;;;;;;0.30;0.30;;;;;;;;;;5014496;28;20482;-62
2022/06/20 03:34:09;;;;;;;0.40;0.40;;;;;;;;;;4995146;28;20050;-63
2022/06/20 03:36:35;;;;;;;0.77;0.70;;;;;;;;;;5010619;28;20053;-62
2022/06/20 03:39:01;;;;;;;0.40;0.40;;;;;;;;;;4996217;28;20050;-63
2022/06/20 03:41:28;;;;;;;0.52;0.47;;;;;;;;;;4994849;28;20050;-63
2022/06/20 03:44:12;;;;;;;0.20;0.20;;;;;;;;;;4993867;28;20109;-63
2022/06/20 03:46:53;;;;;;;1.08;0.38;;;;;;;;;;4982072;28;20075;-62
2022/06/20 03:49:26;;;;;;;0.40;0.40;;;;;;;;;;5013918;28;20100;-62
2022/06/20 03:51:58;;;;;;;0.30;0.20;;;;;;;;;;5014508;28;20037;-62
2022/06/20 03:54:27;;;;;;;1.00;0.30;;;;;;;;;;5013435;28;20482;-63
2022/06/20 03:57:05;;;;;;;0.85;0.40;;;;;;;;;;5005431;28;20444;-63
2022/06/20 03:59:52;;;;;;;0.80;0.52;;;;;;;;;;4992437;28;20047;-63
2022/06/20 04:02:23;;;;;;;0.20;0.20;;;;;;;;;;4960817;28;20059;-63
2022/06/20 04:04:53;;;;;;;0.40;0.40;;;;;;;;;;4977273;28;20054;-63
2022/06/20 04:07:22;;;;;;;0.30;0.30;;;;;;;;;;4993868;28;20518;-64
2022/06/20 04:12:39;;;;;;;0.75;0.50;;;;;;;;;;4993772;28;20115;-64
2022/06/20 04:15:11;;;;;;;0.28;0.28;;;;;;;;;;4993683;28;20049;-64
2022/06/20 04:20:34;;;;;;;0.28;0.28;;;;;;;;;;4994099;28;20042;-64
2022/06/20 04:23:03;;;;;;;0.30;0.30;;;;;;;;;;4992173;28;20181;-64
2022/06/20 04:25:33;;;;;;;0.22;0.22;;;;;;;;;;4975802;28;20057;-64
2022/06/20 04:28:04;;;;;;;0.38;0.38;;;;;;;;;;4975526;28;20108;-64
2022/06/20 04:30:36;;;;;;;0.28;0.28;;;;;;;;;;4993925;28;20038;-64
2022/06/20 04:33:05;;;;;;;0.30;0.30;;;;;;;;;;5008988;28;20095;-64
2022/06/20 04:35:38;;;;;;;0.40;0.40;;;;;;;;;;4996142;28;20048;-64
2022/06/20 04:38:04;;;;;;;0.85;0.40;;;;;;;;;;5001835;28;20125;-64
2022/06/20 04:40:33;;;;;;;1.33;0.30;;;;;;;;;;4992490;28;20444;-64
2022/06/20 04:43:02;;;;;;;0.57;0.40;;;;;;;;;;5006653;28;20061;-64
2022/06/20 04:45:33;;;;;;;0.22;0.22;;;;;;;;;;4995995;28;20056;-64
2022/06/20 04:48:02;;;;;;;0.68;0.43;;;;;;;;;;5013247;28;20084;-64
2022/06/20 04:50:30;;;;;;;0.40;0.40;;;;;;;;;;4995189;28;20092;-64
2022/06/20 04:52:59;;;;;;;1.27;0.40;;;;;;;;;;5013140;28;20045;-64
2022/06/20 04:55:28;;;;;;;0.40;0.40;;;;;;;;;;4994888;28;20042;-64
2022/06/20 04:57:55;;;;;;;0.70;0.40;;;;;;;;;;4993910;28;20054;-64
2022/06/20 05:00:23;;;;;;;0.52;0.32;;;;;;;;;;4992999;28;20468;-64
2022/06/20 05:02:51;;;;;;;0.95;0.32;;;;;;;;;;4976299;28;20438;-64
2022/06/20 05:05:19;;;;;;;1.95;0.40;;;;;;;;;;4994374;28;20050;-64
2022/06/20 05:07:46;;;;;;;0.32;0.32;;;;;;;;;;5012802;28;20371;-64
2022/06/20 05:10:19;;;;;;;0.47;0.45;;;;;;;;;;4993861;28;20038;-64
2022/06/20 05:12:49;;;;;;;0.32;0.20;;;;;;;;;;4999191;28;20054;-64
2022/06/20 05:15:21;;;;;;;0.55;0.30;;;;;;;;;;4992644;28;20128;-64
2022/06/20 05:17:48;;;;;;;0.65;0.40;;;;;;;;;;4996841;28;20069;-64
2022/06/20 05:20:27;;;;;;;0.68;0.40;;;;;;;;;;4994749;28;20056;-65
2022/06/20 05:23:22;;;;;;;0.30;0.30;;;;;;;;;;4998604;28;20050;-64
2022/06/20 05:25:49;;;;;;;2.10;0.38;;;;;;;;;;4954540;28;20054;-64
2022/06/20 05:28:18;;;;;;;0.73;0.22;;;;;;;;;;4999331;28;20140;-65
2022/06/20 05:30:45;;;;;;;0.20;0.20;;;;;;;;;;4992833;28;20050;-65
2022/06/20 05:33:30;;;;;;;0.88;0.63;;;;;;;;;;4974694;28;20144;-65
2022/06/20 05:36:15;;;;;;;0.30;0.30;;;;;;;;;;4975597;28;20049;-65
2022/06/20 05:38:44;;;;;;;1.08;0.40;;;;;;;;;;4987682;28;20376;-64
2022/06/20 05:41:13;;;;;;;0.22;0.22;;;;;;;;;;4992859;28;20069;-65
2022/06/20 05:43:39;;;;;;;0.20;0.20;;;;;;;;;;5010926;28;20050;-65
2022/06/20 05:46:19;;;;;;;0.40;0.40;;;;;;;;;;5011227;28;20145;-65
2022/06/20 05:48:49;;;;;;;0.40;0.40;;;;;;;;;;5012246;28;20037;-66
2022/06/20 05:51:16;;;;;;;0.60;0.60;;;;;;;;;;5011087;28;20076;-66
2022/06/20 05:53:51;;;;;;;1.48;0.68;;;;;;;;;;5012031;28;20131;-66
2022/06/20 05:56:27;;;;;;;1.30;0.40;;;;;;;;;;5009141;28;20050;-66
2022/06/20 05:58:54;;;;;;;0.57;0.50;;;;;;;;;;5011259;28;20129;-66
2022/06/20 06:01:22;;;;;;;0.25;0.25;;;;;;;;;;5001175;28;20130;-66
2022/06/20 06:04:07;;;;;;;0.30;0.30;;;;;;;;;;5003934;28;20472;-67
2022/06/20 06:06:37;;;;;;;0.50;0.50;;;;;;;;;;5007167;28;20108;-66
2022/06/20 06:09:06;;;;;;;1.23;0.63;;;;;;;;;;5010430;28;20077;-66
2022/06/20 06:11:46;;;;;;;4.75;0.95;;;;;;;;;;5011247;28;20046;-66
2022/06/20 06:14:15;;;;;;;0.88;0.73;;;;;;;;;;5010030;28;20045;-68
2022/06/20 06:16:50;;;;;;;1.65;0.85;;;;;;;;;;5011755;28;20045;-66
2022/06/20 06:19:24;;;;;;;1.30;0.93;;;;;;;;;;5009778;28;20041;-65
2022/06/20 06:21:52;;;;;;;1.40;1.10;;;;;;;;;;5001725;28;20034;-67
2022/06/20 06:24:20;;;;;;;3.17;1.60;;;;;;;;;;5009390;28;20768;-66
2022/06/20 06:26:48;;;;;;;7.22;1.90;;;;;;;;;;5011602;28;20049;-70
2022/06/20 06:29:17;;;;;;;4.22;1.60;;;;;;;;;;4992388;28;20046;-67
2022/06/20 06:31:46;;;;;;;4.32;1.80;;;;;;;;;;4993942;28;20049;-64
2022/06/20 06:34:15;;;;;;;2.88;1.63;;;;;;;;;;4979050;28;20069;-64
2022/06/20 06:36:44;;;;;;;2.95;1.60;;;;;;;;;;5003824;28;20054;-64
2022/06/20 06:39:18;;;;;;;4.45;1.95;;;;;;;;;;4989819;28;20050;-64
2022/06/20 06:41:46;;;;;;;6.93;2.67;;;;;;;;;;4974576;28;20133;-65
2022/06/20 06:44:25;;;;;;;4.00;1.80;;;;;;;;;;4991989;28;20088;-64
2022/06/20 06:46:53;;;;;;;4.57;2.40;;;;;;;;;;4974050;28;20395;-64
2022/06/20 06:49:39;;;;;;;3.45;1.92;;;;;;;;;;4973768;28;20049;-64
2022/06/20 06:52:23;;;;;;;4.53;2.05;;;;;;;;;;4992724;28;20050;-63
2022/06/20 06:54:58;;;;;;;3.38;2.03;;;;;;;;;;4996538;28;20168;-63
2022/06/20 06:57:38;;;;;;;4.10;2.30;;;;;;;;;;5010163;28;20483;-64
2022/06/20 07:00:04;;;;;;;7.22;2.40;;;;;;;;;;4993367;28;20072;-63
2022/06/20 07:02:42;;;;;;;5.22;2.40;;;;;;;;;;4999172;28;20046;-63
2022/06/20 07:05:16;;;;;;;4.72;2.45;;;;;;;;;;4984292;28;20088;-65
2022/06/20 07:07:49;;;;;;;4.82;2.60;;;;;;;;;;4980561;28;20057;-63
2022/06/20 07:10:21;;;;;;;5.90;2.78;;;;;;;;;;4998692;28;20096;-64
2022/06/20 07:12:49;;;;;;;11.15;2.72;;;;;;;;;;4998435;28;20046;-64
2022/06/20 07:15:17;;;;;;;6.47;2.20;;;;;;;;;;4993214;28;20089;-64
2022/06/20 07:17:51;;;;;;;5.00;2.40;;;;;;;;;;4973761;28;20042;-66
2022/06/20 07:20:18;;;;;;;6.72;2.72;;;;;;;;;;4996319;28;20046;-64
2022/06/20 07:22:44;;;;;;;4.05;2.17;;;;;;;;;;4993004;28;20081;-64
2022/06/20 07:25:17;;;;;;;7.75;2.58;;;;;;;;;;4988477;28;20057;-65
2022/06/20 07:27:47;;;;;;;5.72;2.38;;;;;;;;;;4994400;28;20042;-63
2022/06/20 07:30:15;;;;;;;3.95;2.33;;;;;;;;;;5008112;28;20041;-64
2022/06/20 07:32:45;;;;;;;4.55;1.98;;;;;;;;;;4989344;28;20053;-64
2022/06/20 07:35:14;;;;;;;3.97;1.80;;;;;;;;;;4996376;28;20049;-65
2022/06/20 07:37:47;;;;;;;6.28;2.33;;;;;;;;;;4999719;28;20057;-63
2022/06/20 07:40:32;;;;;;;4.70;2.03;;;;;;;;;;4987897;28;20475;-66
2022/06/20 07:43:04;;;;;;;3.03;1.30;;;;;;;;;;5001308;28;20050;-63
2022/06/20 07:45:57;;;;;;;3.67;1.52;;;;;;;;;;5000020;28;20045;-63
2022/06/20 07:48:26;;;;;;;4.05;1.85;;;;;;;;;;4999852;28;20120;-63
2022/06/20 07:51:11;;;;;;;7.22;1.58;;;;;;;;;;5007982;28;20472;-64
2022/06/20 07:53:39;;;;;;;5.88;1.83;;;;;;;;;;5009754;28;20045;-63
2022/06/20 07:56:32;;;;;;;6.30;1.55;;;;;;;;;;5009497;28;20045;-64
2022/06/20 07:59:01;;;;;;;4.00;1.40;;;;;;;;;;4989285;28;20112;-64
2022/06/20 08:01:36;;;;;;;5.88;1.42;;;;;;;;;;5001755;28;20042;-64
2022/06/20 08:04:04;;;;;;;4.53;1.05;;;;;;;;;;5009114;28;20383;-64
2022/06/20 08:06:50;;;;;;;3.38;1.38;;;;;;;;;;5001725;28;20041;-65
2022/06/20 08:09:19;;;;;;;3.58;1.40;;;;;;;;;;4994800;28;20456;-65
2022/06/20 08:11:46;;;;;;;5.00;1.88;;;;;;;;;;5006795;28;20121;-64
2022/06/20 08:14:25;;;;;;;5.15;1.40;;;;;;;;;;5007918;28;20077;-61
2022/06/20 08:16:54;;;;;;;2.95;1.50;;;;;;;;;;5008439;28;20045;-62
2022/06/20 08:19:20;;;;;;;3.50;1.63;;;;;;;;;;4995249;28;20427;-62
2022/06/20 08:21:48;;;;;;;6.22;2.08;;;;;;;;;;4995676;28;20053;-62
2022/06/20 08:24:23;;;;;;;3.67;1.77;;;;;;;;;;5012523;28;20087;-63
2022/06/20 08:27:02;;;;;;;5.97;1.90;;;;;;;;;;4995464;28;20045;-63
2022/06/20 08:29:43;;;;;;;5.93;2.00;;;;;;;;;;4994433;28;20383;-62
2022/06/20 08:32:17;;;;;;;9.20;2.03;;;;;;;;;;5013483;28;20046;-62
2022/06/20 08:34:56;;;;;;;3.85;2.00;;;;;;;;;;5013226;28;20057;-63
2022/06/20 08:37:41;;;;;;;6.80;1.50;;;;;;;;;;5012703;28;20042;-62
2022/06/20 08:40:22;;;;;;;8.95;2.28;;;;;;;;;;5011688;28;20487;-62
2022/06/20 08:43:03;;;;;;;5.13;2.03;;;;;;;;;;4997741;28;20479;-60
2022/06/20 08:45:39;;;;;;;1.88;1.05;;;;;;;;;;5011572;28;20042;-61
2022/06/20 08:48:23;;;;;;;4.97;1.77;;;;;;;;;;4999365;28;20046;-64
2022/06/20 08:50:55;;;;;;;14.98;1.85;;;20.80;73.70;;;;;;4997900;28;20373;-64
2022/06/20 08:53:59;;;;;;;12.80;1.63;;;20.80;74.60;;;;;;4996101;28;20109;-68
2022/06/20 08:56:38;;;;;;;8.93;1.52;;;20.80;74.50;;;;;;4965670;28;20089;-67
2022/06/20 08:59:24;;;;;;;4.47;1.30;;;20.90;74.40;;;;;;4998108;28;20507;-68
2022/06/20 09:02:17;;;;;;;12.57;2.20;;;21.00;74.40;;;;;;5005677;28;20441;-69
2022/06/20 09:04:55;;;;;;;11.68;1.77;;;21.10;74.20;;;;;;5011349;28;20045;-68
2022/06/20 09:07:57;;;;;;;10.63;2.13;;;21.10;74.00;;;;;;5001352;28;20042;-67
2022/06/20 09:10:52;;;;;;;4.55;1.60;;;21.20;74.10;;;;;;4993565;28;20097;-72
2022/06/20 09:13:39;;;;;;;7.43;1.90;;;21.20;73.90;;;;;;4987264;28;20062;-64
2022/06/20 09:16:19;;;;;;;26.25;3.13;;;21.30;74.10;;;;;;5004207;28;20053;-65
2022/06/20 09:18:50;;;;;;;2.28;1.20;;;21.40;72.60;;;;;;5011253;28;20034;-65
2022/06/20 09:21:46;;;;;;;10.50;1.60;;;21.40;72.80;;;;;;4993606;28;20049;-66
2022/06/20 09:24:21;;;;;;;15.93;1.98;;;21.30;70.90;;;;;;5011723;28;20049;-65
2022/06/20 09:27:07;;;;;;;4.88;1.50;;;21.30;71.80;;;;;;5006500;28;20439;-66
2022/06/20 09:29:59;;;;;;;5.88;1.45;;;21.20;71.50;;;;;;4991401;28;20057;-66
2022/06/20 09:32:51;;;;;;;2.92;1.27;;;21.20;71.30;;;;;;5007418;28;20056;-66
2022/06/20 09:35:44;;;;;;;4.88;1.70;;;21.30;71.40;;;;;;4948845;28;20054;-66
2022/06/20 09:38:24;;;;;;;4.35;1.50;;;21.40;71.20;;;;;;4992529;28;20129;-66
2022/06/20 09:40:56;;;;;;;3.83;1.60;;;21.50;71.20;;;;;;5002302;28;20127;-66
2022/06/20 09:44:01;;;;;;;3.88;1.17;;;21.50;71.00;;;;;;5010190;28;20033;-67
2022/06/20 09:46:32;;;;;;;5.90;1.00;;;21.60;71.00;;;;;;4978617;28;20054;-66
2022/06/20 09:49:23;;;;;;;2.83;1.10;;;21.70;71.00;;;;;;5011535;28;20036;-66
2022/06/20 09:52:09;;;;;;;2.35;1.08;;;21.70;70.90;;;;;;5009490;28;20073;-66
2022/06/20 09:54:58;;;;;;;2.28;1.35;;;21.70;70.90;;;;;;5008520;28;20077;-66
2022/06/20 09:57:59;;;;;;;2.70;1.00;;;21.80;70.90;;;;;;4968977;28;20406;-66
2022/06/20 10:00:49;;;;;;;2.88;1.00;;;21.80;70.90;;;;;;5010367;28;20042;-66
2022/06/20 10:03:53;;;;;;;4.07;1.02;;;21.80;71.50;;;;;;5011969;28;20053;-67
2022/06/20 10:06:30;;;;;;;5.00;1.85;;;21.80;70.90;;;;;;5011590;28;20069;-65
2022/06/20 10:09:14;;;;;;;2.17;1.00;;;21.80;71.00;;;;;;5002096;28;20467;-67
2022/06/20 10:11:50;;;;;;;1.45;0.95;;;21.90;71.10;;;;;;5006768;28;20052;-66
2022/06/20 10:14:32;;;;;;;2.08;0.80;;;21.90;71.10;;;;;;5009668;28;20049;-67
2022/06/20 10:17:27;;;;;;;3.25;1.10;;;21.90;71.10;;;;;;5011078;28;20040;-66
2022/06/20 10:20:14;;;;;;;2.00;0.88;;;21.90;71.20;;;;;;5009009;28;20049;-66
2022/06/20 10:22:45;;;;;;;;;;;21.90;71.20;;;;;;5008978;28;20435;-67
2022/06/20 10:25:37;;;;;;;2.35;0.93;;;21.90;71.50;;;;;;5010287;28;19964;-65
2022/06/20 10:28:08;;;;;;;2.55;0.95;;;21.70;71.20;;;;;;5004736;28;20134;-66
2022/06/20 10:30:48;;;;;;;3.28;0.82;;;21.90;71.30;;;;;;5009147;28;20045;-66
2022/06/20 10:33:17;;;;;;;2.17;0.98;;;22.00;71.40;;;;;;5011095;28;20119;-66
2022/06/20 10:35:45;;;;;;;1.05;0.88;;;22.00;71.40;;;;;;5010439;28;20103;-66
2022/06/20 10:38:16;;;;;;;2.33;1.10;;;22.00;71.40;;;;;;5010579;28;20369;-65
2022/06/20 10:40:52;;;;;;;2.95;1.38;;;22.00;71.50;;;;;;5009491;28;20050;-66
2022/06/20 10:43:43;;;;;;;1.55;0.70;;;22.00;71.60;;;;;;5001002;28;20095;-66
2022/06/20 10:46:36;;;;;;;1.40;0.95;;;22.00;71.60;;;;;;5001480;28;20412;-66
2022/06/20 10:49:22;;;;;;;1.17;1.08;;;22.00;71.70;;;;;;5000141;28;20038;-66
2022/06/20 10:52:15;;;;;;;3.55;0.85;;;22.00;71.70;;;;;;4998260;28;20048;-66
2022/06/20 10:55:08;;;;;;;2.15;1.08;;;22.00;71.80;;;;;;4999635;28;20069;-66
2022/06/20 10:58:08;;;;;;;1.75;0.85;;;22.00;71.80;;;;;;4986847;28;20053;-66
2022/06/20 11:00:41;;;;;;;0.93;0.85;;;22.00;72.00;;;;;;5008195;28;20056;-66
2022/06/20 11:03:25;;;;;;;3.53;0.90;;;22.00;71.90;;;;;;5008605;28;20054;-66
2022/06/20 11:06:20;;;;;;;1.50;0.75;;;22.00;72.00;;;;;;4981827;28;20046;-66
2022/06/20 11:08:55;;;;;;;3.17;0.95;;;22.00;72.00;;;;;;4986743;28;20042;-66
2022/06/20 11:11:36;;;;;;;1.27;0.70;;;22.00;72.60;;;;;;4996503;28;20042;-66
2022/06/20 11:14:23;;;;;;;1.00;1.00;;;22.00;72.00;;;;;;4987095;28;20388;-66
2022/06/20 11:17:17;;;;;;;2.08;1.08;;;22.00;72.10;;;;;;4991365;28;20049;-64
2022/06/20 11:20:09;;;;;;;3.08;1.10;;;22.00;72.30;;;;;;4988182;28;20042;-66
2022/06/20 11:22:38;;;;;;;2.33;0.90;;;22.00;72.20;;;;;;4983681;28;20454;-66
2022/06/20 11:26:00;;;;;;;2.83;1.10;;;22.00;72.20;;;;;;4988115;28;20042;-66
2022/06/20 11:28:36;;;;;;;1.23;0.60;;;22.00;72.40;;;;;;4915251;29;20663;-66
2022/06/20 11:31:10;;;;;;;1.83;0.70;;;22.00;72.30;;;;;;4919424;29;20059;-66
2022/06/20 11:34:04;;;;;;;2.25;1.10;;;22.00;72.30;;;;;;4978625;28;20050;-66
2022/06/20 11:36:43;;;;;;;1.23;0.57;;;22.00;72.40;;;;;;5004898;28;20369;-66
2022/06/20 11:39:47;;;;;;;1.58;0.80;;;22.00;72.40;;;;;;4993863;28;20137;-66
2022/06/20 11:42:21;;;;;;;2.13;0.80;;;22.00;72.50;;;;;;5011452;28;20081;-66
2022/06/20 11:45:04;;;;;;;3.65;0.88;;;22.00;72.00;;;;;;5010944;28;20054;-66
2022/06/20 11:48:07;;;;;;;1.60;1.10;;;22.00;71.70;;;;;;5014282;28;20045;-66
2022/06/20 11:51:14;;;;;;;1.88;0.85;;;22.00;72.00;;;;;;5013644;28;20057;-66
2022/06/20 11:53:53;;;;;;;4.75;0.90;;;22.00;72.00;;;;;;5003359;28;20046;-66
2022/06/20 11:56:41;;;;;;;4.80;0.90;;;22.00;72.00;;;;;;5012632;28;20053;-66
2022/06/20 11:59:28;;;;;;;3.45;1.33;;;22.00;72.00;;;;;;5011020;28;20034;-66
2022/06/20 12:02:22;;;;;;;4.00;1.15;;;22.00;72.00;;;;;;5007419;28;20060;-66
2022/06/20 12:04:58;;;;;;;1.40;0.73;;;22.00;72.10;;;;;;5010104;28;20041;-66
2022/06/20 12:07:44;;;;;;;3.08;0.95;;;22.00;72.10;;;;;;4997135;28;20056;-66
2022/06/20 12:10:39;;;;;;;1.10;0.82;;;22.00;72.10;;;;;;5012642;28;20041;-66
2022/06/20 12:13:12;;;;;;;2.22;0.88;;;22.00;72.20;;;;;;5012926;28;20046;-66
2022/06/20 12:15:48;;;;;;;0.95;0.70;;;22.00;72.20;;;;;;5013113;28;20045;-66
2022/06/20 12:18:39;;;;;;;1.25;0.73;;;22.00;72.30;;;;;;5013324;28;20045;-67
2022/06/20 12:24:07;;;;;;;2.92;1.13;;;22.00;72.30;;;;;;5009713;28;20081;-66
2022/06/20 12:26:39;;;;;;;1.25;0.82;;;22.00;72.30;;;;;;5013533;28;20072;-66
2022/06/20 12:29:14;;;;;;;3.55;0.73;;;22.00;72.40;;;;;;5012104;28;20534;-66
2022/06/20 12:31:43;;;;;;;2.00;0.60;;;22.00;72.30;;;;;;5013111;28;20049;-66
2022/06/20 12:34:22;;;;;;;1.70;0.63;;;22.00;72.30;;;;;;5013145;28;20121;-66
2022/06/20 12:37:02;;;;;;;3.10;0.90;;;22.00;72.40;;;;;;5012968;28;20133;-66
2022/06/20 12:39:31;;;;;;;0.63;0.60;;;22.00;72.40;;;;;;5006166;28;20077;-66
2022/06/20 12:42:18;;;;;;;0.73;0.70;;;22.00;72.90;;;;;;5003790;28;20054;-65
2022/06/20 12:44:54;;;;;;;;;;;22.00;72.10;;;;;;5010607;28;20042;-66
2022/06/20 12:47:26;;;;;;;2.42;1.08;;;22.00;72.10;;;;;;5011895;28;20412;-66
2022/06/20 12:50:14;;;;;;;1.25;0.82;;;22.00;72.10;;;;;;5002977;28;20378;-66
2022/06/20 12:53:00;;;;;;;1.85;0.82;;;22.00;72.00;;;;;;4998401;28;20047;-67
2022/06/20 12:55:49;;;;;;;1.17;0.73;;;22.00;72.00;;;;;;4999945;28;20503;-66
2022/06/20 12:58:14;;;;;;;1.63;1.00;;;22.00;72.10;;;;;;4997322;28;20046;-66
2022/06/20 13:00:42;;;;;;;;;;;22.00;72.80;;;;;;4999040;28;20042;-66
2022/06/20 13:03:38;;;;;;;1.70;0.98;;;22.00;72.20;;;;;;4993779;28;19960;-66
2022/06/20 13:06:14;;;;;;;2.95;1.10;;;22.00;72.20;;;;;;4999593;28;20062;-66
2022/06/20 13:09:01;;;;;;;1.08;1.00;;;22.00;72.20;;;;;;4997554;28;20053;-66
2022/06/20 13:11:58;;;;;;;0.95;0.80;;;22.00;72.20;;;;;;4992704;28;20045;-66
2022/06/20 13:14:27;;;;;;;0.75;0.70;;;22.00;72.30;;;;;;4992491;28;20046;-66
2022/06/20 13:17:26;;;;;;;2.47;0.88;;;22.00;72.30;;;;;;5000821;28;20170;-66
2022/06/20 13:20:29;;;;;;;0.93;0.80;;;22.00;72.30;;;;;;5001688;28;20472;-66
2022/06/20 13:23:19;;;;;;;1.02;0.80;;;22.00;72.30;;;;;;4998257;28;20069;-66
2022/06/20 13:25:56;;;;;;;2.35;0.95;;;22.00;72.30;;;;;;5010172;28;20456;-66
2022/06/20 13:28:37;;;;;;;5.93;1.15;;;22.00;72.40;;;;;;5011547;28;20057;-66
2022/06/20 13:31:18;;;;;;;1.23;0.80;;;22.00;72.40;;;;;;4994658;28;20038;-66
2022/06/20 13:34:00;;;;;;;1.55;0.90;;;22.00;72.50;;;;;;5003621;28;20053;-66
2022/06/20 13:36:30;;;;;;;1.90;0.90;;;22.00;72.50;;;;;;5011753;28;20042;-66
2022/06/20 13:39:16;;;;;;;2.65;1.00;;;22.00;72.60;;;;;;4993538;28;20050;-66
2022/06/20 13:41:52;;;;;;;1.17;0.70;;;22.00;72.50;;;;;;4998954;28;20514;-66
2022/06/20 13:44:30;;;;;;;1.33;0.82;;;22.00;72.60;;;;;;5010435;28;20050;-66
2022/06/20 13:47:07;;;;;;;1.65;0.80;;;22.00;72.60;;;;;;5008083;28;20042;-65
2022/06/20 13:50:10;;;;;;;2.38;1.17;;;22.00;72.60;;;;;;4996388;28;20038;-66
2022/06/20 13:53:13;;;;;;;1.33;0.70;;;22.00;72.60;;;;;;4992005;28;20046;-66
2022/06/20 13:56:09;;;;;;;1.33;0.90;;;22.00;72.60;;;;;;5000985;28;20041;-66
2022/06/20 13:58:48;;;;;;;2.92;1.02;;;22.00;72.60;;;;;;4997000;28;20046;-66
2022/06/20 14:01:16;;;;;;;0.75;0.70;;;22.00;72.60;;;;;;5011598;28;20136;-65
2022/06/20 14:03:59;;;;;;;0.80;0.80;;;22.00;72.60;;;;;;4997246;28;20476;-67
2022/06/20 14:06:48;;;;;;;1.02;0.90;;;22.00;72.60;;;;;;5005179;28;20130;-64
2022/06/20 14:09:25;;;;;;;4.43;1.27;;;22.00;71.10;;;;;;4998572;28;20861;-63
2022/06/20 14:12:04;;;;;;;2.50;1.33;;;21.90;71.00;;;;;;4977243;28;20054;-63
2022/06/20 14:14:37;;;;;;;4.07;0.93;;;21.80;70.60;;;;;;4993163;28;20046;-63
2022/06/20 14:17:15;;;;;;;1.27;0.77;;;21.70;70.00;;;;;;5010674;28;20769;-64
2022/06/20 14:20:00;;;;;;;2.83;1.08;;;21.70;69.00;;;;;;5011145;28;20042;-66
2022/06/20 14:22:34;;;;;;;1.75;1.17;;;21.60;68.30;;;;;;5010941;28;20037;-63
2022/06/20 14:25:20;;;;;;;5.43;1.50;;;21.50;68.70;;;;;;5009462;28;20054;-65
2022/06/20 14:27:52;;;;;;;2.10;1.13;;;21.40;68.60;;;;;;4990787;28;20081;-65
2022/06/20 14:30:32;;;;;;;1.60;1.10;;;21.40;68.40;;;;;;5005145;28;20042;-65
2022/06/20 14:33:17;;;;;;;3.45;1.48;;;21.30;68.10;;;;;;4991172;28;20043;-65
2022/06/20 14:35:46;;;;;;;3.55;1.00;;;21.20;68.10;;;;;;5010342;28;20041;-65
2022/06/20 14:38:20;;;;;;;2.58;1.05;;;21.20;67.80;;;;;;5011146;28;20052;-63
2022/06/20 14:40:54;;;;;;;2.05;1.08;;;21.10;68.10;;;;;;5009415;28;20049;-64
2022/06/20 14:43:41;;;;;;;2.25;1.30;;;21.10;68.10;;;;;;5003146;28;20082;-64
2022/06/20 14:46:24;;;;;;;2.25;1.30;;;21.00;67.70;;;;;;5004760;28;20039;-64
2022/06/20 14:49:02;;;;;;;2.55;1.30;;;20.90;67.80;;;;;;5002073;28;20048;-64
2022/06/20 14:51:45;;;;;;;3.38;1.25;;;20.90;68.10;;;;;;5010463;28;20065;-66